createdAt,value
2022-09-16T00:00:08.309Z,0
2022-09-16T00:01:09.489Z,0
2022-09-16T00:02:10.070Z,0
2022-09-16T00:03:10.071Z,0
2022-09-16T00:04:10.257Z,0
2022-09-16T00:05:11.150Z,0
2022-09-16T00:06:11.063Z,0
2022-09-16T00:07:11.377Z,0
2022-09-16T00:08:12.906Z,0
2022-09-16T00:09:13.117Z,0
2022-09-16T00:10:12.969Z,0
2022-09-16T00:11:14.184Z,0
2022-09-16T00:12:13.804Z,0
2022-09-16T00:13:14.797Z,0
2022-09-16T00:14:15.001Z,0
2022-09-16T00:15:15.923Z,0
2022-09-16T00:16:16.146Z,0
2022-09-16T00:17:16.847Z,0
2022-09-16T00:18:18.072Z,0
2022-09-16T00:19:17.445Z,0
2022-09-16T00:20:18.461Z,0
2022-09-16T00:21:18.087Z,0
2022-09-16T00:22:18.724Z,0
2022-09-16T00:23:19.978Z,0
2022-09-16T00:24:19.633Z,0
2022-09-16T00:25:20.513Z,0
2022-09-16T00:26:21.453Z,0
2022-09-16T00:27:22.051Z,0
2022-09-16T00:28:22.984Z,0
2022-09-16T00:29:23.900Z,0
2022-09-16T00:30:23.886Z,0
2022-09-16T00:31:24.778Z,0
2022-09-16T00:32:26.078Z,0
2022-09-16T00:33:25.699Z,0
2022-09-16T00:34:27.190Z,0
2022-09-16T00:35:26.800Z,0
2022-09-16T00:36:27.433Z,0
2022-09-16T00:37:27.768Z,0
2022-09-16T00:38:29.309Z,0
2022-09-16T00:39:29.245Z,0
2022-09-16T00:40:29.947Z,0
2022-09-16T00:41:30.241Z,0
2022-09-16T00:42:29.835Z,0
2022-09-16T00:43:31.033Z,0
2022-09-16T00:44:31.385Z,0
2022-09-16T00:45:32.573Z,0
2022-09-16T00:46:32.783Z,0
2022-09-16T00:47:32.752Z,0
2022-09-16T00:48:33.380Z,0
2022-09-16T00:49:33.419Z,0
2022-09-16T00:50:34.423Z,0
2022-09-16T00:51:34.330Z,0
2022-09-16T00:52:34.820Z,0
2022-09-16T00:53:37.415Z,0
2022-09-16T00:54:34.711Z,0
2022-09-16T00:55:36.201Z,0
2022-09-16T00:56:36.416Z,0
2022-09-16T00:57:36.736Z,0
2022-09-16T00:58:37.372Z,0
2022-09-16T00:59:38.287Z,0
2022-09-16T01:00:39.251Z,0
2022-09-16T01:01:39.460Z,0
2022-09-16T01:02:39.030Z,0
2022-09-16T01:03:39.942Z,0
2022-09-16T01:04:40.569Z,0
2022-09-16T01:05:41.781Z,0
2022-09-16T01:06:41.983Z,0
2022-09-16T01:07:42.170Z,0
2022-09-16T01:08:43.518Z,0
2022-09-16T01:09:43.185Z,0
2022-09-16T01:10:44.468Z,0
2022-09-16T01:11:44.683Z,0
2022-09-16T01:12:45.301Z,0
2022-09-16T01:13:45.644Z,0
2022-09-16T01:14:46.529Z,0
2022-09-16T01:15:47.215Z,0
2022-09-16T01:16:47.910Z,0
2022-09-16T01:17:48.514Z,0
2022-09-16T01:18:49.126Z,0
2022-09-16T01:19:50.328Z,0
2022-09-16T01:20:51.064Z,0
2022-09-16T01:21:51.683Z,0
2022-09-16T01:22:52.595Z,0
2022-09-16T01:23:53.833Z,0
2022-09-16T01:24:53.799Z,0
2022-09-16T01:25:54.706Z,0
2022-09-16T01:26:54.924Z,0
2022-09-16T01:27:55.101Z,0
2022-09-16T01:28:56.048Z,0
2022-09-16T01:29:56.696Z,0
2022-09-16T01:30:56.872Z,0
2022-09-16T01:31:58.193Z,0
2022-09-16T01:32:59.085Z,0
2022-09-16T01:34:00.299Z,0
2022-09-16T01:35:00.610Z,0
2022-09-16T01:36:01.546Z,0
2022-09-16T01:37:02.471Z,0
2022-09-16T01:38:03.396Z,0
2022-09-16T01:39:03.704Z,0
2022-09-16T01:40:04.964Z,0
2022-09-16T01:41:04.760Z,0
2022-09-16T01:42:04.979Z,0
2022-09-16T01:43:05.155Z,0
2022-09-16T01:44:05.067Z,0
2022-09-16T01:45:06.035Z,0
2022-09-16T01:46:06.388Z,0
2022-09-16T01:47:07.494Z,0
2022-09-16T01:48:07.808Z,0
2022-09-16T01:49:08.739Z,0
2022-09-16T01:50:09.372Z,0
2022-09-16T01:51:09.214Z,0
2022-09-16T01:52:10.136Z,0
2022-09-16T01:53:10.059Z,0
2022-09-16T01:54:11.019Z,0
2022-09-16T01:55:10.906Z,0
2022-09-16T01:56:12.109Z,0
2022-09-16T01:57:12.772Z,0
2022-09-16T01:58:13.407Z,0
2022-09-16T01:59:14.321Z,0
2022-09-16T02:00:15.222Z,0
2022-09-16T02:01:15.992Z,0
2022-09-16T02:02:17.552Z,0
2022-09-16T02:03:17.128Z,0
2022-09-16T02:04:18.320Z,0
2022-09-16T02:05:18.951Z,0
2022-09-16T02:06:19.548Z,0
2022-09-16T02:07:20.194Z,0
2022-09-16T02:08:20.831Z,0
2022-09-16T02:09:22.364Z,0
2022-09-16T02:10:22.989Z,0
2022-09-16T02:11:23.378Z,0
2022-09-16T02:12:24.741Z,0
2022-09-16T02:13:25.063Z,0
2022-09-16T02:14:25.796Z,0
2022-09-16T02:15:26.408Z,0
2022-09-16T02:16:27.844Z,0
2022-09-16T02:17:27.174Z,0
2022-09-16T02:18:27.787Z,0
2022-09-16T02:19:28.700Z,0
2022-09-16T02:20:29.328Z,0
2022-09-16T02:21:29.748Z,0
2022-09-16T02:22:30.667Z,0
2022-09-16T02:23:31.154Z,0
2022-09-16T02:24:31.401Z,0
2022-09-16T02:25:32.009Z,0
2022-09-16T02:26:33.191Z,0
2022-09-16T02:27:32.808Z,0
2022-09-16T02:28:33.718Z,0
2022-09-16T02:29:33.763Z,0
2022-09-16T02:30:34.668Z,0
2022-09-16T02:31:36.363Z,0
2022-09-16T02:32:35.827Z,0
2022-09-16T02:33:36.720Z,0
2022-09-16T02:34:37.668Z,0
2022-09-16T02:35:38.562Z,0
2022-09-16T02:36:38.451Z,0
2022-09-16T02:37:39.088Z,0
2022-09-16T02:38:39.726Z,0
2022-09-16T02:39:40.939Z,0
2022-09-16T02:40:41.771Z,0
2022-09-16T02:41:42.514Z,0
2022-09-16T02:42:43.451Z,0
2022-09-16T02:43:43.922Z,0
2022-09-16T02:44:44.557Z,0
2022-09-16T02:45:44.874Z,0
2022-09-16T02:46:45.746Z,0
2022-09-16T02:47:46.962Z,0
2022-09-16T02:48:47.151Z,0
2022-09-16T02:49:47.643Z,0
2022-09-16T02:50:47.855Z,0
2022-09-16T02:51:48.265Z,0
2022-09-16T02:52:50.210Z,0
2022-09-16T02:53:50.480Z,0
2022-09-16T02:54:50.727Z,0
2022-09-16T02:55:51.335Z,0
2022-09-16T02:56:51.676Z,0
2022-09-16T02:57:52.039Z,0
2022-09-16T02:58:52.956Z,0
2022-09-16T02:59:54.167Z,0
2022-09-16T03:00:54.369Z,0
2022-09-16T03:01:55.000Z,0
2022-09-16T03:02:55.332Z,0
2022-09-16T03:03:55.365Z,0
2022-09-16T03:04:55.255Z,0
2022-09-16T03:05:56.146Z,0
2022-09-16T03:06:57.058Z,0
2022-09-16T03:07:57.985Z,0
2022-09-16T03:08:57.949Z,0
2022-09-16T03:09:59.172Z,0
2022-09-16T03:10:58.767Z,0
2022-09-16T03:11:59.478Z,0
2022-09-16T03:13:00.113Z,0
2022-09-16T03:14:01.143Z,0
2022-09-16T03:15:01.437Z,0
2022-09-16T03:16:02.568Z,0
2022-09-16T03:17:02.842Z,0
2022-09-16T03:18:03.333Z,0
2022-09-16T03:19:02.951Z,0
2022-09-16T03:20:03.842Z,0
2022-09-16T03:21:03.780Z,0
2022-09-16T03:22:04.797Z,0
2022-09-16T03:23:05.431Z,0
2022-09-16T03:24:05.681Z,0
2022-09-16T03:25:05.922Z,0
2022-09-16T03:26:07.105Z,0
2022-09-16T03:27:07.317Z,0
2022-09-16T03:28:06.936Z,0
2022-09-16T03:29:07.837Z,0
2022-09-16T03:30:07.758Z,0
2022-09-16T03:31:08.668Z,0
2022-09-16T03:32:08.966Z,0
2022-09-16T03:33:10.186Z,0
2022-09-16T03:34:10.379Z,0
2022-09-16T03:35:10.706Z,0
2022-09-16T03:36:11.621Z,0
2022-09-16T03:37:12.535Z,0
2022-09-16T03:38:13.165Z,0
2022-09-16T03:39:14.642Z,0
2022-09-16T03:40:15.178Z,0
2022-09-16T03:41:14.598Z,0
2022-09-16T03:42:15.289Z,0
2022-09-16T03:43:16.253Z,0
2022-09-16T03:44:16.489Z,0
2022-09-16T03:45:17.385Z,0
2022-09-16T03:46:17.522Z,0
2022-09-16T03:47:18.158Z,0
2022-09-16T03:48:19.071Z,0
2022-09-16T03:49:18.978Z,0
2022-09-16T03:50:20.185Z,0
2022-09-16T03:51:20.396Z,0
2022-09-16T03:52:21.360Z,0
2022-09-16T03:53:21.566Z,0
2022-09-16T03:54:22.480Z,0
2022-09-16T03:55:22.710Z,0
2022-09-16T03:56:23.060Z,0
2022-09-16T03:57:23.370Z,0
2022-09-16T03:58:25.307Z,0
2022-09-16T03:59:25.509Z,0
2022-09-16T04:00:25.846Z,0
2022-09-16T04:01:27.084Z,0
2022-09-16T04:02:27.379Z,0
2022-09-16T04:03:32.633Z,0
2022-09-16T04:04:29.041Z,0
2022-09-16T04:05:29.930Z,0
2022-09-16T04:06:30.118Z,0
2022-09-16T04:07:30.029Z,0
2022-09-16T04:08:30.962Z,0
2022-09-16T04:09:32.179Z,0
2022-09-16T04:10:32.432Z,0
2022-09-16T04:11:32.337Z,0
2022-09-16T04:12:33.212Z,0
2022-09-16T04:13:34.152Z,0
2022-09-16T04:14:34.346Z,0
2022-09-16T04:15:35.249Z,0
2022-09-16T04:16:36.318Z,0
2022-09-16T04:17:36.397Z,0
2022-09-16T04:18:37.591Z,0
2022-09-16T04:19:38.556Z,0
2022-09-16T04:20:38.870Z,0
2022-09-16T04:21:39.793Z,0
2022-09-16T04:22:39.807Z,0
2022-09-16T04:23:41.005Z,0
2022-09-16T04:24:41.594Z,0
2022-09-16T04:25:42.823Z,0
2022-09-16T04:26:42.737Z,0
2022-09-16T04:27:42.346Z,0
2022-09-16T04:28:43.282Z,0
2022-09-16T04:29:43.192Z,0
2022-09-16T04:30:43.881Z,0
2022-09-16T04:31:44.941Z,0
2022-09-16T04:32:45.357Z,0
2022-09-16T04:33:45.969Z,0
2022-09-16T04:34:46.903Z,0
2022-09-16T04:35:47.491Z,0
2022-09-16T04:36:48.978Z,0
2022-09-16T04:37:48.591Z,0
2022-09-16T04:38:49.746Z,0
2022-09-16T04:39:49.483Z,0
2022-09-16T04:40:50.767Z,0
2022-09-16T04:41:50.811Z,0
2022-09-16T04:42:51.847Z,0
2022-09-16T04:43:51.764Z,0
2022-09-16T04:44:52.370Z,4
2022-09-16T04:45:53.884Z,0
2022-09-16T04:46:55.216Z,0
2022-09-16T04:47:55.426Z,4
2022-09-16T04:48:56.316Z,4
2022-09-16T04:49:57.237Z,4
2022-09-16T04:50:58.149Z,0
2022-09-16T04:51:58.036Z,4
2022-09-16T04:52:58.454Z,4
2022-09-16T04:53:59.874Z,4
2022-09-16T04:55:03.357Z,4
2022-09-16T04:56:00.580Z,8
2022-09-16T04:57:01.500Z,4
2022-09-16T04:58:01.390Z,8
2022-09-16T04:59:02.179Z,12
2022-09-16T05:00:02.378Z,12
2022-09-16T05:01:03.016Z,12
2022-09-16T05:02:03.954Z,12
2022-09-16T05:03:04.339Z,12
2022-09-16T05:04:05.361Z,16
2022-09-16T05:05:05.696Z,16
2022-09-16T05:06:06.622Z,16
2022-09-16T05:07:06.936Z,12
2022-09-16T05:08:07.861Z,12
2022-09-16T05:09:08.190Z,8
2022-09-16T05:10:08.799Z,12
2022-09-16T05:11:10.019Z,12
2022-09-16T05:12:09.973Z,12
2022-09-16T05:13:10.046Z,12
2022-09-16T05:14:11.086Z,16
2022-09-16T05:15:12.221Z,20
2022-09-16T05:16:12.758Z,28
2022-09-16T05:17:23.097Z,36
2022-09-16T05:18:13.638Z,36
2022-09-16T05:19:13.831Z,32
2022-09-16T05:20:14.175Z,40
2022-09-16T05:21:15.668Z,44
2022-09-16T05:22:15.708Z,52
2022-09-16T05:23:17.003Z,56
2022-09-16T05:24:18.311Z,60
2022-09-16T05:25:19.233Z,48
2022-09-16T05:26:20.054Z,40
2022-09-16T05:27:20.270Z,40
2022-09-16T05:28:21.182Z,52
2022-09-16T05:29:21.232Z,72
2022-09-16T05:30:25.846Z,72
2022-09-16T05:31:22.690Z,64
2022-09-16T05:32:22.133Z,56
2022-09-16T05:33:23.702Z,52
2022-09-16T05:34:23.923Z,52
2022-09-16T05:35:23.854Z,52
2022-09-16T05:36:24.340Z,52
2022-09-16T05:37:24.825Z,52
2022-09-16T05:38:24.716Z,48
2022-09-16T05:39:41.439Z,52
2022-09-16T05:40:25.393Z,48
2022-09-16T05:41:27.010Z,36
2022-09-16T05:42:27.498Z,44
2022-09-16T05:43:27.725Z,44
2022-09-16T05:44:28.787Z,40
2022-09-16T05:45:38.191Z,48
2022-09-16T05:46:29.344Z,48
2022-09-16T05:47:29.261Z,36
2022-09-16T05:48:30.170Z,40
2022-09-16T05:49:30.507Z,48
2022-09-16T05:50:31.114Z,68
2022-09-16T05:51:31.941Z,84
2022-09-16T05:52:31.281Z,104
2022-09-16T05:53:32.546Z,112
2022-09-16T05:54:33.176Z,100
2022-09-16T05:55:34.209Z,84
2022-09-16T05:56:34.964Z,80
2022-09-16T05:57:34.882Z,88
2022-09-16T05:58:35.504Z,104
2022-09-16T05:59:36.542Z,120
2022-09-16T06:00:37.015Z,148
2022-09-16T06:01:37.295Z,200
2022-09-16T06:02:37.858Z,232
2022-09-16T06:03:37.441Z,264
2022-09-16T06:04:38.357Z,280
2022-09-16T06:05:40.559Z,276
2022-09-16T06:06:39.810Z,264
2022-09-16T06:07:39.144Z,256
2022-09-16T06:08:40.335Z,264
2022-09-16T06:09:40.950Z,272
2022-09-16T06:10:41.949Z,264
2022-09-16T06:11:42.471Z,236
2022-09-16T06:12:42.068Z,224
2022-09-16T06:13:42.781Z,196
2022-09-16T06:14:43.553Z,180
2022-09-16T06:15:43.902Z,196
2022-09-16T06:16:44.030Z,220
2022-09-16T06:17:44.947Z,224
2022-09-16T06:18:46.149Z,224
2022-09-16T06:19:46.635Z,228
2022-09-16T06:20:46.570Z,224
2022-09-16T06:21:47.196Z,220
2022-09-16T06:22:47.513Z,228
2022-09-16T06:23:48.717Z,236
2022-09-16T06:24:48.635Z,248
2022-09-16T06:25:49.943Z,264
2022-09-16T06:26:50.213Z,272
2022-09-16T06:27:50.827Z,272
2022-09-16T06:28:51.745Z,280
2022-09-16T06:29:52.491Z,288
2022-09-16T06:30:53.832Z,292
2022-09-16T06:31:54.128Z,292
2022-09-16T06:32:54.027Z,292
2022-09-16T06:33:54.874Z,292
2022-09-16T06:34:55.416Z,292
2022-09-16T06:35:55.679Z,284
2022-09-16T06:36:56.890Z,288
2022-09-16T06:37:55.810Z,264
2022-09-16T06:38:57.301Z,244
2022-09-16T06:39:57.353Z,248
2022-09-16T06:40:58.214Z,272
2022-09-16T06:41:58.830Z,316
2022-09-16T06:43:05.345Z,356
2022-09-16T06:43:59.256Z,324
2022-09-16T06:45:00.270Z,304
2022-09-16T06:46:00.820Z,340
2022-09-16T06:47:01.135Z,408
2022-09-16T06:48:02.040Z,468
2022-09-16T06:49:09.667Z,504
2022-09-16T06:50:03.157Z,524
2022-09-16T06:51:03.050Z,496
2022-09-16T06:52:03.966Z,468
2022-09-16T06:53:04.979Z,424
2022-09-16T06:54:06.008Z,352
2022-09-16T06:55:06.727Z,332
2022-09-16T06:56:07.743Z,356
2022-09-16T06:57:11.433Z,408
2022-09-16T06:58:08.043Z,408
2022-09-16T06:59:09.350Z,372
2022-09-16T07:00:10.377Z,340
2022-09-16T07:01:11.503Z,380
2022-09-16T07:02:12.524Z,532
2022-09-16T07:03:12.468Z,576
2022-09-16T07:04:12.901Z,588
2022-09-16T07:05:13.101Z,596
2022-09-16T07:06:14.023Z,604
2022-09-16T07:07:20.583Z,596
2022-09-16T07:08:15.075Z,588
2022-09-16T07:09:15.302Z,588
2022-09-16T07:10:14.916Z,600
2022-09-16T07:11:16.527Z,648
2022-09-16T07:12:20.648Z,688
2022-09-16T07:13:17.139Z,648
2022-09-16T07:14:17.261Z,592
2022-09-16T07:15:18.589Z,532
2022-09-16T07:16:24.690Z,488
2022-09-16T07:17:18.978Z,468
2022-09-16T07:18:19.890Z,456
2022-09-16T07:19:20.527Z,480
2022-09-16T07:20:21.167Z,516
2022-09-16T07:21:22.403Z,580
2022-09-16T07:22:23.606Z,644
2022-09-16T07:23:23.799Z,672
2022-09-16T07:24:24.596Z,720
2022-09-16T07:25:25.211Z,628
2022-09-16T07:26:26.252Z,596
2022-09-16T07:27:26.808Z,592
2022-09-16T07:28:26.457Z,596
2022-09-16T07:29:27.451Z,656
2022-09-16T07:30:28.845Z,700
2022-09-16T07:31:29.702Z,704
2022-09-16T07:32:29.910Z,720
2022-09-16T07:33:29.545Z,732
2022-09-16T07:34:30.829Z,768
2022-09-16T07:35:31.323Z,776
2022-09-16T07:36:31.265Z,744
2022-09-16T07:37:32.209Z,752
2022-09-16T07:38:33.556Z,772
2022-09-16T07:39:33.202Z,772
2022-09-16T07:40:38.025Z,788
2022-09-16T07:41:35.064Z,812
2022-09-16T07:42:35.722Z,892
2022-09-16T07:43:35.352Z,812
2022-09-16T07:44:35.560Z,764
2022-09-16T07:45:36.178Z,920
2022-09-16T07:46:36.710Z,768
2022-09-16T07:47:36.631Z,752
2022-09-16T07:48:40.710Z,1128
2022-09-16T07:49:37.332Z,1096
2022-09-16T07:50:37.522Z,768
2022-09-16T07:51:38.154Z,764
2022-09-16T07:52:39.237Z,844
2022-09-16T07:53:40.767Z,808
2022-09-16T07:54:40.327Z,908
2022-09-16T07:55:41.220Z,760
2022-09-16T07:56:41.552Z,808
2022-09-16T07:57:42.397Z,852
2022-09-16T07:58:42.321Z,664
2022-09-16T07:59:43.226Z,656
2022-09-16T08:00:43.834Z,648
2022-09-16T08:01:49.547Z,640
2022-09-16T08:02:44.882Z,764
2022-09-16T08:03:45.563Z,692
2022-09-16T08:04:46.083Z,640
2022-09-16T08:05:46.571Z,664
2022-09-16T08:06:47.218Z,688
2022-09-16T08:07:47.860Z,748
2022-09-16T08:08:49.189Z,816
2022-09-16T08:09:59.252Z,1032
2022-09-16T08:10:52.045Z,1020
2022-09-16T08:11:51.664Z,884
2022-09-16T08:12:52.255Z,896
2022-09-16T08:13:52.367Z,1052
2022-09-16T08:14:53.434Z,908
2022-09-16T08:15:54.051Z,1080
2022-09-16T08:16:54.249Z,1120
2022-09-16T08:17:54.675Z,1224
2022-09-16T08:18:55.038Z,1384
2022-09-16T08:19:55.678Z,1588
2022-09-16T08:20:57.183Z,1712
2022-09-16T08:21:57.391Z,1688
2022-09-16T08:23:03.338Z,1920
2022-09-16T08:23:58.273Z,1856
2022-09-16T08:24:58.494Z,2020
2022-09-16T08:25:58.702Z,1976
2022-09-16T08:26:59.521Z,1948
2022-09-16T08:28:04.085Z,1440
2022-09-16T08:29:20.050Z,928
2022-09-16T08:30:00.537Z,884
2022-09-16T08:31:04.715Z,1164
2022-09-16T08:32:00.914Z,1440
2022-09-16T08:33:00.885Z,1816
2022-09-16T08:34:01.816Z,1948
2022-09-16T08:35:02.564Z,1684
2022-09-16T08:36:03.671Z,1332
2022-09-16T08:37:03.890Z,1604
2022-09-16T08:38:04.212Z,1532
2022-09-16T08:39:05.872Z,1376
2022-09-16T08:40:06.305Z,836
2022-09-16T08:41:06.987Z,668
2022-09-16T08:42:06.980Z,744
2022-09-16T08:43:08.212Z,924
2022-09-16T08:44:08.705Z,1136
2022-09-16T08:45:09.219Z,976
2022-09-16T08:46:09.587Z,836
2022-09-16T08:47:09.063Z,692
2022-09-16T08:48:10.044Z,700
2022-09-16T08:49:11.123Z,860
2022-09-16T08:50:11.643Z,1184
2022-09-16T08:51:11.627Z,1272
2022-09-16T08:52:11.981Z,1232
2022-09-16T08:53:13.191Z,1364
2022-09-16T08:54:13.387Z,1492
2022-09-16T08:55:13.545Z,1292
2022-09-16T08:56:13.892Z,1340
2022-09-16T08:57:14.958Z,1040
2022-09-16T08:58:15.886Z,1644
2022-09-16T08:59:16.136Z,2048
2022-09-16T09:00:17.115Z,2336
2022-09-16T09:01:17.953Z,2428
2022-09-16T09:02:22.666Z,2356
2022-09-16T09:03:19.126Z,2332
2022-09-16T09:04:19.072Z,2280
2022-09-16T09:05:19.602Z,2080
2022-09-16T09:06:19.800Z,1780
2022-09-16T09:07:20.118Z,1664
2022-09-16T09:08:21.325Z,1708
2022-09-16T09:09:20.952Z,1696
2022-09-16T09:10:21.938Z,1584
2022-09-16T09:11:23.155Z,1520
2022-09-16T09:13:44.707Z,1484
2022-09-16T09:14:25.210Z,1340
2022-09-16T09:15:33.547Z,1252
2022-09-16T09:16:26.922Z,1184
2022-09-16T09:17:26.945Z,964
2022-09-16T09:18:27.783Z,956
2022-09-16T09:19:28.678Z,956
2022-09-16T09:20:29.294Z,952
2022-09-16T09:21:33.330Z,804
2022-09-16T09:22:30.542Z,684
2022-09-16T09:23:30.770Z,656
2022-09-16T09:24:30.405Z,612
2022-09-16T09:25:31.941Z,568
2022-09-16T09:26:32.157Z,632
2022-09-16T09:27:32.769Z,668
2022-09-16T09:28:34.765Z,572
2022-09-16T09:29:34.404Z,616
2022-09-16T09:30:36.012Z,732
2022-09-16T09:31:36.857Z,820
2022-09-16T09:32:55.177Z,896
2022-09-16T09:34:00.037Z,820
2022-09-16T09:34:42.608Z,792
2022-09-16T09:35:38.418Z,804
2022-09-16T09:36:38.357Z,912
2022-09-16T09:37:38.276Z,1080
2022-09-16T09:38:39.751Z,1348
2022-09-16T09:39:39.397Z,1584
2022-09-16T09:40:40.912Z,1468
2022-09-16T09:41:40.806Z,1416
2022-09-16T09:42:41.303Z,1520
2022-09-16T09:43:42.222Z,1668
2022-09-16T09:44:42.139Z,1660
2022-09-16T09:45:43.766Z,1844
2022-09-16T09:46:43.772Z,1980
2022-09-16T09:47:43.686Z,2064
2022-09-16T09:48:44.655Z,1988
2022-09-16T09:49:44.580Z,2296
2022-09-16T09:50:45.490Z,2304
2022-09-16T09:51:46.708Z,2300
2022-09-16T09:52:47.201Z,2360
2022-09-16T09:53:47.126Z,2480
2022-09-16T09:54:48.114Z,2408
2022-09-16T09:55:48.839Z,2396
2022-09-16T09:56:49.756Z,2344
2022-09-16T09:57:51.244Z,2332
2022-09-16T09:58:52.226Z,2496
2022-09-16T09:59:52.420Z,2868
2022-09-16T10:00:53.405Z,2464
2022-09-16T10:01:53.629Z,2016
2022-09-16T10:02:59.948Z,1952
2022-09-16T10:03:53.842Z,2140
2022-09-16T10:04:55.328Z,1996
2022-09-16T10:05:55.849Z,1812
2022-09-16T10:06:55.944Z,1540
2022-09-16T10:07:56.221Z,1452
2022-09-16T10:08:57.438Z,1312
2022-09-16T10:09:57.682Z,1168
2022-09-16T10:10:57.601Z,1060
2022-09-16T10:11:58.536Z,1008
2022-09-16T10:12:59.460Z,1076
2022-09-16T10:14:00.468Z,1228
2022-09-16T10:15:00.364Z,1204
2022-09-16T10:16:06.198Z,1292
2022-09-16T10:17:02.579Z,1488
2022-09-16T10:18:02.763Z,1484
2022-09-16T10:19:02.781Z,1312
2022-09-16T10:20:03.719Z,1268
2022-09-16T10:21:04.969Z,1416
2022-09-16T10:22:04.876Z,1484
2022-09-16T10:23:05.780Z,1460
2022-09-16T10:24:05.698Z,1500
2022-09-16T10:25:06.611Z,940
2022-09-16T10:26:06.853Z,404
2022-09-16T10:27:07.467Z,392
2022-09-16T10:28:08.388Z,580
2022-09-16T10:29:09.420Z,628
2022-09-16T10:30:09.403Z,640
2022-09-16T10:31:10.815Z,720
2022-09-16T10:32:11.512Z,1072
2022-09-16T10:33:12.000Z,932
2022-09-16T10:34:11.957Z,888
2022-09-16T10:35:12.876Z,800
2022-09-16T10:36:13.883Z,728
2022-09-16T10:37:14.819Z,948
2022-09-16T10:38:15.475Z,1752
2022-09-16T10:39:17.045Z,2000
2022-09-16T10:40:17.491Z,1756
2022-09-16T10:41:17.522Z,2020
2022-09-16T10:42:18.470Z,1768
2022-09-16T10:43:18.664Z,1148
2022-09-16T10:44:23.388Z,932
2022-09-16T10:45:19.024Z,1108
2022-09-16T10:46:19.935Z,11528
2022-09-16T10:47:20.086Z,1800
2022-09-16T10:48:21.268Z,9076
2022-09-16T10:49:21.468Z,10996
2022-09-16T10:50:22.393Z,10812
2022-09-16T10:51:23.611Z,11620
2022-09-16T10:52:24.195Z,2268
2022-09-16T10:53:24.469Z,6248
2022-09-16T10:54:25.145Z,13884
2022-09-16T10:55:26.365Z,13076
2022-09-16T10:56:26.727Z,12552
2022-09-16T10:57:26.639Z,2252
2022-09-16T10:58:28.066Z,3520
2022-09-16T10:59:28.747Z,4180
2022-09-16T11:00:28.395Z,7844
2022-09-16T11:01:34.564Z,2360
2022-09-16T11:02:30.239Z,1856
2022-09-16T11:03:31.163Z,1780
2022-09-16T11:04:32.406Z,1920
2022-09-16T11:05:36.406Z,1664
2022-09-16T11:06:33.211Z,1900
2022-09-16T11:07:33.810Z,1744
2022-09-16T11:08:34.028Z,2364
2022-09-16T11:09:33.677Z,1716
2022-09-16T11:10:34.896Z,1600
2022-09-16T11:11:35.635Z,1776
2022-09-16T11:12:36.464Z,1924
2022-09-16T11:13:36.685Z,1476
2022-09-16T11:14:38.351Z,1276
2022-09-16T11:15:37.980Z,1324
2022-09-16T11:16:39.054Z,1636
2022-09-16T11:17:39.470Z,1760
2022-09-16T11:18:40.100Z,2056
2022-09-16T11:19:41.262Z,1964
2022-09-16T11:20:41.800Z,2064
2022-09-16T11:21:41.447Z,2168
2022-09-16T11:22:42.638Z,1976
2022-09-16T11:23:43.588Z,1912
2022-09-16T11:24:44.080Z,1952
2022-09-16T11:25:43.985Z,2144
2022-09-16T11:26:44.950Z,2488
2022-09-16T11:27:45.600Z,2656
2022-09-16T11:28:46.513Z,2604
2022-09-16T11:29:47.534Z,1488
2022-09-16T11:30:47.477Z,2296
2022-09-16T11:31:47.717Z,2488
2022-09-16T11:32:49.758Z,2716
2022-09-16T11:33:49.371Z,1668
2022-09-16T11:34:49.572Z,1980
2022-09-16T11:35:50.195Z,1604
2022-09-16T11:36:50.919Z,1728
2022-09-16T11:37:51.517Z,1700
2022-09-16T11:38:57.001Z,2068
2022-09-16T11:39:53.414Z,2128
2022-09-16T11:40:53.648Z,2048
2022-09-16T11:41:54.277Z,1900
2022-09-16T11:42:53.903Z,2780
2022-09-16T11:43:54.852Z,1524
2022-09-16T11:44:55.998Z,1912
2022-09-16T11:45:56.212Z,2192
2022-09-16T11:46:56.901Z,2500
2022-09-16T11:47:57.270Z,3052
2022-09-16T11:48:57.484Z,1792
2022-09-16T11:49:57.708Z,1928
2022-09-16T11:50:57.908Z,1740
2022-09-16T11:51:58.825Z,2444
2022-09-16T11:53:04.993Z,1864
2022-09-16T11:54:01.694Z,1696
2022-09-16T11:55:01.023Z,2112
2022-09-16T11:56:01.636Z,2568
2022-09-16T11:57:02.934Z,2584
2022-09-16T11:58:03.707Z,2108
2022-09-16T11:59:04.692Z,1904
2022-09-16T12:00:05.394Z,1984
2022-09-16T12:01:06.025Z,2616
2022-09-16T12:02:06.588Z,5268
2022-09-16T12:03:07.410Z,7848
2022-09-16T12:04:07.769Z,3716
2022-09-16T12:05:07.979Z,8172
2022-09-16T12:06:09.175Z,8096
2022-09-16T12:07:09.773Z,3880
2022-09-16T12:08:10.755Z,8416
2022-09-16T12:09:16.334Z,6388
2022-09-16T12:10:11.954Z,1532
2022-09-16T12:11:12.593Z,1480
2022-09-16T12:12:13.098Z,1948
2022-09-16T12:13:12.996Z,2456
2022-09-16T12:14:17.051Z,6756
2022-09-16T12:15:17.659Z,1684
2022-09-16T12:16:14.917Z,1500
2022-09-16T12:17:15.641Z,1568
2022-09-16T12:18:17.050Z,1592
2022-09-16T12:19:17.237Z,1736
2022-09-16T12:20:17.555Z,2008
2022-09-16T12:21:18.477Z,3944
2022-09-16T12:22:19.701Z,1856
2022-09-16T12:23:19.615Z,3428
2022-09-16T12:24:20.838Z,1176
2022-09-16T12:25:20.534Z,1088
2022-09-16T12:26:21.727Z,1096
2022-09-16T12:27:21.997Z,1308
2022-09-16T12:28:22.323Z,1100
2022-09-16T12:29:22.287Z,5500
2022-09-16T12:30:24.279Z,6752
2022-09-16T12:31:30.033Z,1072
2022-09-16T12:32:25.124Z,816
2022-09-16T12:33:26.490Z,644
2022-09-16T12:34:26.388Z,504
2022-09-16T12:35:27.807Z,396
2022-09-16T12:36:31.792Z,288
2022-09-16T12:37:28.244Z,112
2022-09-16T12:38:29.158Z,76
2022-09-16T12:39:29.796Z,164
2022-09-16T12:40:30.280Z,144
2022-09-16T12:41:30.612Z,116
2022-09-16T12:42:30.943Z,96
2022-09-16T12:43:31.842Z,100
2022-09-16T12:44:45.538Z,116
2022-09-16T12:45:33.499Z,116
2022-09-16T12:46:33.052Z,116
2022-09-16T12:47:34.133Z,100
2022-09-16T12:48:35.203Z,92
2022-09-16T12:49:35.833Z,64
2022-09-16T12:50:36.481Z,68
2022-09-16T12:51:37.003Z,64
2022-09-16T12:52:37.391Z,56
2022-09-16T12:53:38.030Z,56
2022-09-16T12:55:12.770Z,100
2022-09-16T12:55:39.388Z,136
2022-09-16T12:56:40.012Z,204
2022-09-16T12:57:39.856Z,284
2022-09-16T12:58:41.098Z,364
2022-09-16T12:59:41.293Z,372
2022-09-16T13:00:42.163Z,504
2022-09-16T13:01:43.431Z,656
2022-09-16T13:02:43.800Z,756
2022-09-16T13:03:44.602Z,792
2022-09-16T13:04:44.781Z,828
2022-09-16T13:05:45.169Z,768
2022-09-16T13:06:46.374Z,696
2022-09-16T13:07:46.671Z,592
2022-09-16T13:08:47.893Z,536
2022-09-16T13:09:48.109Z,524
2022-09-16T13:12:43.005Z,448
2022-09-16T13:13:01.114Z,440
2022-09-16T13:14:01.731Z,396
2022-09-16T13:15:03.239Z,424
2022-09-16T13:16:04.098Z,396
2022-09-16T13:17:03.252Z,520
2022-09-16T13:18:04.173Z,576
2022-09-16T13:19:04.879Z,592
2022-09-16T13:20:05.069Z,628
2022-09-16T13:21:06.142Z,736
2022-09-16T13:22:06.064Z,724
2022-09-16T13:23:06.957Z,776
2022-09-16T13:24:07.891Z,508
2022-09-16T13:25:12.613Z,348
2022-09-16T13:26:09.242Z,356
2022-09-16T13:27:10.153Z,304
2022-09-16T13:28:10.773Z,240
2022-09-16T13:29:11.784Z,184
2022-09-16T13:30:11.972Z,192
2022-09-16T13:31:13.790Z,156
2022-09-16T13:32:13.863Z,124
2022-09-16T13:33:13.827Z,120
2022-09-16T13:34:14.582Z,116
2022-09-16T13:35:15.065Z,120
2022-09-16T13:36:15.278Z,132
2022-09-16T13:37:15.168Z,164
2022-09-16T13:38:15.090Z,196
2022-09-16T13:39:16.383Z,252
2022-09-16T13:40:16.784Z,332
2022-09-16T13:41:16.542Z,376
2022-09-16T13:42:17.466Z,368
2022-09-16T13:43:18.106Z,320
2022-09-16T13:44:19.055Z,312
2022-09-16T13:45:23.190Z,340
2022-09-16T13:47:21.553Z,272
2022-09-16T13:48:22.442Z,324
2022-09-16T13:49:22.858Z,312
2022-09-16T13:50:23.038Z,304
2022-09-16T13:51:23.240Z,248
2022-09-16T13:52:22.888Z,252
2022-09-16T13:53:23.534Z,244
2022-09-16T13:54:24.444Z,208
2022-09-16T13:55:24.943Z,176
2022-09-16T13:56:24.552Z,180
2022-09-16T13:57:24.910Z,172
2022-09-16T13:58:25.271Z,160
2022-09-16T13:59:26.252Z,144
2022-09-16T14:00:27.593Z,184
2022-09-16T14:02:04.513Z,208
2022-09-16T14:02:28.815Z,212
2022-09-16T14:03:29.681Z,208
2022-09-16T14:04:29.873Z,216
2022-09-16T14:05:30.056Z,216
2022-09-16T14:06:31.222Z,192
2022-09-16T14:07:31.896Z,192
2022-09-16T14:08:32.814Z,204
2022-09-16T14:09:33.305Z,212
2022-09-16T14:10:34.105Z,220
2022-09-16T14:11:34.753Z,232
2022-09-16T14:12:35.645Z,248